Terminal Aerodrome Forecast
Issued by NWS

Home | Current Version | Previous Version | Text Only | Print | Product List | Glossary On
Versions: 1 2 3 4 5 6 7 8 9 10 11 12
854
FTUS46 KHNX 262320
TAFBFL
TAF
KBFL 262320Z 2700/2724 31006KT P6SM SCT050 BKN100
     FM271200 33005KT P6SM BKN050 OVC070=

USA.gov is the U.S. government's official web portal to all federal, state and local government web resources and services.